Time;durP1;ratioP1;P1;durP2;ratioP2;P2;SDS_P1;SDS_P2;PMS_P1;PMS_P2;Temp;Humidity;BMP_temperature;BMP_pressure;BME280_temperature;BME280_humidity;BME280_pressure;Samples;Min_cycle;Max_cycle;Signal;HPM_P1;HPM_P2
2021/12/07 00:00:09;;;;;;;34.25;22.23;;;;;;;;;;6154093;23;20143;-81
2021/12/07 00:02:35;;;;;;;35.78;22.95;;;;;;;;;;6129390;23;20020;-80
2021/12/07 00:05:01;;;;;;;37.92;23.52;;;;;;;;;;6153971;23;20020;-80
2021/12/07 00:07:27;;;;;;;35.90;23.50;;;;;;;;;;6154275;23;20028;-80
2021/12/07 00:09:53;;;;;;;36.47;22.65;;;;;;;;;;6154011;23;20013;-80
2021/12/07 00:12:19;;;;;;;35.00;22.27;;;;;;;;;;6129447;23;20067;-80
2021/12/07 00:14:45;;;;;;;37.28;22.77;;;;;;;;;;6153760;23;20072;-80
2021/12/07 00:17:12;;;;;;;38.53;24.23;;;;;;;;;;6153860;23;20355;-80
2021/12/07 00:19:38;;;;;;;36.33;23.05;;;;;;;;;;6129264;23;20017;-81
2021/12/07 00:22:05;;;;;;;38.15;24.02;;;;;;;;;;6153742;23;20024;-80
2021/12/07 00:24:31;;;;;;;37.17;24.52;;;;;;;;;;6153625;23;20100;-80
2021/12/07 00:26:57;;;;;;;41.78;25.10;;;;;;;;;;6153476;23;20072;-80
2021/12/07 00:29:23;;;;;;;37.92;24.67;;;;;;;;;;6129094;23;20017;-80
2021/12/07 00:31:54;;;;;;;39.50;23.95;;;;;;;;;;6153731;23;20052;-80
2021/12/07 00:36:57;;;;;;;39.47;23.88;;;;;;;;;;6153519;23;20083;-80
2021/12/07 00:39:24;;;;;;;38.50;23.95;;;;;;;;;;6153779;23;20344;-80
2021/12/07 00:41:51;;;;;;;36.15;22.48;;;;;;;;;;6129081;23;20486;-80
2021/12/07 00:44:18;;;;;;;34.70;21.95;;;;;;;;;;6128834;23;20024;-80
2021/12/07 00:46:44;;;;;;;36.97;24.42;;;;;;;;;;6153272;23;20443;-79
2021/12/07 00:49:10;;;;;;;43.72;25.05;;;;;;;;;;6153703;23;20393;-80
2021/12/07 00:51:36;;;;;;;43.33;26.65;;;;;;;;;;6128804;23;20088;-80
2021/12/07 00:54:03;;;;;;;37.50;23.08;;;;;;;;;;6128462;23;20084;-80
2021/12/07 00:56:29;;;;;;;36.28;23.75;;;;;;;;;;6152728;23;20013;-80
2021/12/07 00:58:55;;;;;;;39.80;24.27;;;;;;;;;;6128592;23;20035;-81
2021/12/07 01:01:21;;;;;;;37.67;24.15;;;;;;;;;;6128872;23;20474;-80
2021/12/07 01:03:47;;;;;;;34.60;22.52;;;;;;;;;;6153172;23;20021;-81
2021/12/07 01:06:24;;;;;;;36.75;23.67;;;;;;;;;;6128535;23;20032;-81
2021/12/07 01:09:12;;;;;;;35.63;24.00;;;;;;;;;;6153322;23;20013;-83
2021/12/07 01:25:32;;;;;;;;;;;;;;;;;;6153475;23;20021;-81
2021/12/07 01:28:04;;;;;;;31.35;20.98;;;;;;;;;;6128154;23;19922;-81
2021/12/07 01:31:21;;;;;;;31.70;20.92;;;;;;;;;;6153051;23;20044;-81
2021/12/07 01:34:08;;;;;;;29.67;19.75;;;;;;;;;;6137272;23;20024;-81
2021/12/07 01:59:52;;;;;;;36.38;21.08;;;;;;;;;;6153015;23;20017;-82
2021/12/07 02:02:19;;;;;;;31.15;20.08;;;;;;;;;;6128459;23;20048;-81
2021/12/07 02:04:46;;;;;;;31.73;20.13;;;;;;;;;;6152634;23;20020;-81
2021/12/07 02:07:13;;;;;;;29.85;19.95;;;;;;;;;;6152863;23;20071;-81
2021/12/07 02:09:42;;;;;;;32.50;20.90;;;;;;;;;;6130008;23;20390;-81
2021/12/07 02:12:11;;;;;;;38.17;23.27;;;;;;;;;;6154690;23;20020;-81
2021/12/07 02:14:37;;;;;;;31.75;20.77;;;;;;;;;;6154907;23;20013;-80
2021/12/07 02:17:09;;;;;;;31.70;21.73;;;;;;;;;;6154673;23;20110;-80
2021/12/07 02:19:35;;;;;;;36.50;22.45;;;;;;;;;;6130243;23;20462;-80
2021/12/07 02:22:01;;;;;;;35.08;22.13;;;;;;;;;;6155089;23;20051;-80
2021/12/07 02:24:28;;;;;;;34.55;21.23;;;;;;;;;;6154736;23;20324;-80
2021/12/07 02:26:55;;;;;;;33.15;21.75;;;;;;;;;;6130020;23;20013;-80
2021/12/07 02:29:21;;;;;;;30.88;20.30;;;;;;;;;;6129986;23;20013;-80
2021/12/07 02:31:48;;;;;;;31.25;20.83;;;;;;;;;;6154576;23;20013;-80
2021/12/07 02:34:14;;;;;;;31.52;20.70;;;;;;;;;;6181101;23;20013;-80
2021/12/07 02:36:41;;;;;;;29.15;19.80;;;;;;;;;;6154552;23;20028;-80
2021/12/07 02:39:11;;;;;;;28.70;18.15;;;;;;;;;;6154514;23;20017;-80
2021/12/07 02:41:37;;;;;;;30.42;20.50;;;;;;;;;;6153586;23;20376;-80
2021/12/07 02:44:06;;;;;;;27.83;18.30;;;;;;;;;;6154217;23;20021;-80
2021/12/07 02:46:32;;;;;;;28.02;18.85;;;;;;;;;;6180898;23;20083;-80
2021/12/07 02:48:58;;;;;;;27.33;18.67;;;;;;;;;;6129794;23;20013;-80
2021/12/07 02:51:24;;;;;;;30.83;19.77;;;;;;;;;;6130175;23;20013;-80
2021/12/07 02:53:50;;;;;;;30.45;19.85;;;;;;;;;;6130105;23;20490;-80
2021/12/07 02:56:16;;;;;;;26.45;18.67;;;;;;;;;;6129832;23;20117;-80
2021/12/07 02:58:44;;;;;;;31.35;19.55;;;;;;;;;;6154266;23;20046;-80
2021/12/07 03:01:16;;;;;;;30.70;19.27;;;;;;;;;;6154376;23;20124;-80
2021/12/07 03:03:55;;;;;;;29.90;19.80;;;;;;;;;;6154196;23;20024;-80
2021/12/07 03:06:32;;;;;;;34.83;20.45;;;;;;;;;;6154483;23;20017;-80
2021/12/07 03:28:10;;;;;;;38.95;23.27;;;;;;;;;;6154257;23;20391;-80
2021/12/07 03:30:36;;;;;;;36.85;24.20;;;;;;;;;;6153977;23;20009;-80
2021/12/07 03:33:03;;;;;;;39.28;25.08;;;;;;;;;;6154082;23;20451;-80
2021/12/07 03:35:29;;;;;;;39.05;24.90;;;;;;;;;;6129440;23;20351;-80
2021/12/07 03:37:55;;;;;;;43.63;25.02;;;;;;;;;;6154251;23;20398;-80
2021/12/07 03:40:22;;;;;;;42.03;25.02;;;;;;;;;;6153840;23;20285;-80
2021/12/07 03:42:48;;;;;;;44.22;26.08;;;;;;;;;;6153832;23;20019;-80
2021/12/07 03:45:14;;;;;;;40.03;24.52;;;;;;;;;;6154074;23;20021;-80
2021/12/07 03:47:40;;;;;;;40.60;25.38;;;;;;;;;;6153938;23;20016;-80
2021/12/07 03:50:06;;;;;;;43.20;25.38;;;;;;;;;;6154064;23;20347;-80
2021/12/07 03:52:33;;;;;;;40.58;25.52;;;;;;;;;;6129575;23;20032;-80
2021/12/07 03:54:59;;;;;;;44.10;25.83;;;;;;;;;;6129541;23;20044;-80
2021/12/07 03:57:25;;;;;;;47.40;28.05;;;;;;;;;;6153977;23;20019;-80
2021/12/07 03:59:51;;;;;;;44.92;25.85;;;;;;;;;;6154021;23;20092;-80
2021/12/07 04:02:17;;;;;;;44.22;26.75;;;;;;;;;;6129215;23;20013;-80
2021/12/07 04:04:44;;;;;;;41.80;25.85;;;;;;;;;;6153778;23;20029;-79
2021/12/07 04:07:10;;;;;;;45.40;26.95;;;;;;;;;;6153320;23;20047;-80
2021/12/07 04:09:36;;;;;;;47.67;26.17;;;;;;;;;;6153885;23;20328;-80
2021/12/07 04:12:02;;;;;;;47.45;26.58;;;;;;;;;;6129345;23;20013;-80
2021/12/07 04:14:28;;;;;;;48.08;26.38;;;;;;;;;;6129197;23;20009;-80
2021/12/07 04:16:54;;;;;;;44.03;26.00;;;;;;;;;;6129333;23;20076;-80
2021/12/07 04:19:20;;;;;;;45.95;26.05;;;;;;;;;;6129355;23;20083;-80
2021/12/07 04:21:46;;;;;;;42.03;24.48;;;;;;;;;;6153703;23;20017;-80
2021/12/07 04:24:13;;;;;;;49.20;26.42;;;;;;;;;;6129083;23;20087;-80
2021/12/07 04:26:40;;;;;;;49.30;26.40;;;;;;;;;;6153399;23;20013;-79
2021/12/07 04:29:06;;;;;;;44.10;25.90;;;;;;;;;;6153574;23;20009;-79
2021/12/07 04:31:32;;;;;;;49.28;25.88;;;;;;;;;;6153697;23;20035;-80
2021/12/07 04:33:58;;;;;;;51.72;25.70;;;;;;;;;;6129081;23;20066;-80
2021/12/07 04:36:24;;;;;;;43.40;25.17;;;;;;;;;;6129104;23;20020;-80
2021/12/07 04:38:50;;;;;;;39.22;23.17;;;;;;;;;;6153544;23;20013;-80
2021/12/07 04:41:16;;;;;;;45.33;26.15;;;;;;;;;;6153599;23;20013;-80
2021/12/07 04:43:42;;;;;;;45.60;24.05;;;;;;;;;;6153638;23;20019;-80
2021/12/07 04:46:19;;;;;;;48.55;27.70;;;;;;;;;;6128380;23;20052;-80
2021/12/07 04:59:34;;;;;;;43.75;24.33;;;;;;;;;;6153415;23;20017;-80
2021/12/07 05:02:00;;;;;;;53.53;26.80;;;;;;;;;;6129307;23;20020;-80
2021/12/07 05:04:30;;;;;;;45.33;24.23;;;;;;;;;;6153080;23;20341;-80
2021/12/07 05:07:05;;;;;;;53.15;27.27;;;;;;;;;;6153102;23;20020;-80
2021/12/07 05:10:03;;;;;;;50.60;26.50;;;;;;;;;;6153371;23;20009;-79
2021/12/07 05:14:46;;;;;;;65.05;27.52;;;;;;;;;;6153414;23;20492;-79
2021/12/07 05:17:38;;;;;;;53.53;26.20;;;;;;;;;;6128946;23;20017;-79
2021/12/07 05:39:17;;;;;;;46.75;22.85;;;;;;;;;;6155957;23;20013;-80
2021/12/07 05:41:43;;;;;;;39.58;21.50;;;;;;;;;;6129761;23;20067;-79
2021/12/07 05:44:09;;;;;;;41.88;23.10;;;;;;;;;;6153577;23;20013;-80
2021/12/07 05:46:35;;;;;;;37.08;20.77;;;;;;;;;;6155205;23;20048;-80
2021/12/07 05:49:01;;;;;;;49.25;23.45;;;;;;;;;;6130588;23;20020;-79
2021/12/07 05:51:27;;;;;;;40.95;21.33;;;;;;;;;;6154942;23;20252;-79
2021/12/07 05:53:53;;;;;;;43.65;22.80;;;;;;;;;;6155096;23;20358;-79
2021/12/07 05:56:19;;;;;;;45.70;22.17;;;;;;;;;;6130674;23;20013;-83
2021/12/07 05:58:45;;;;;;;42.33;21.50;;;;;;;;;;6130624;23;20024;-81
2021/12/07 06:01:11;;;;;;;42.63;21.05;;;;;;;;;;6154945;23;20521;-81
2021/12/07 06:03:37;;;;;;;47.78;23.80;;;;;;;;;;6130066;23;20023;-81
2021/12/07 06:06:04;;;;;;;44.17;21.42;;;;;;;;;;6130112;23;20471;-81
2021/12/07 06:08:30;;;;;;;47.03;22.75;;;;;;;;;;6153570;23;20032;-81
2021/12/07 06:10:56;;;;;;;49.22;21.98;;;;;;;;;;6129410;23;20067;-80
2021/12/07 06:13:23;;;;;;;41.95;21.30;;;;;;;;;;6154216;23;20087;-81
2021/12/07 06:15:49;;;;;;;49.17;21.92;;;;;;;;;;6154058;23;20028;-80
2021/12/07 06:18:16;;;;;;;46.83;22.13;;;;;;;;;;6129743;23;20013;-81
2021/12/07 06:20:42;;;;;;;45.95;22.10;;;;;;;;;;6154503;23;20474;-80
2021/12/07 06:23:14;;;;;;;50.72;22.85;;;;;;;;;;6129679;23;20020;-80
2021/12/07 06:25:40;;;;;;;43.40;21.08;;;;;;;;;;6154718;23;20040;-80
2021/12/07 06:28:06;;;;;;;42.20;20.50;;;;;;;;;;6129567;23;20017;-80
2021/12/07 06:30:32;;;;;;;39.58;19.83;;;;;;;;;;6129792;23;20121;-80
2021/12/07 06:32:58;;;;;;;50.72;22.58;;;;;;;;;;6154394;23;20009;-80
2021/12/07 06:35:24;;;;;;;44.33;20.02;;;;;;;;;;6129692;23;20016;-79
2021/12/07 06:37:50;;;;;;;42.58;20.88;;;;;;;;;;6129532;23;20009;-80
2021/12/07 06:40:16;;;;;;;46.78;20.67;;;;;;;;;;6153996;23;20013;-80
2021/12/07 06:42:42;;;;;;;48.72;21.77;;;;;;;;;;6129370;23;20043;-79
2021/12/07 06:45:10;;;;;;;44.85;20.98;;;;;;;;;;6154383;23;20013;-79
2021/12/07 06:47:36;;;;;;;45.33;20.75;;;;;;;;;;6154295;23;20270;-80
2021/12/07 06:50:07;;;;;;;42.58;20.73;;;;;;;;;;6154037;23;20022;-80
2021/12/07 06:52:34;;;;;;;40.53;18.70;;;;;;;;;;6154224;23;20025;-81
2021/12/07 06:55:00;;;;;;;35.92;17.55;;;;;;;;;;6129298;23;20016;-81
2021/12/07 06:57:26;;;;;;;32.30;17.08;;;;;;;;;;6154263;23;20041;-80
2021/12/07 06:59:53;;;;;;;34.75;18.92;;;;;;;;;;6154651;23;20115;-80
2021/12/07 07:02:19;;;;;;;35.50;17.95;;;;;;;;;;6129905;23;20048;-79
2021/12/07 07:04:45;;;;;;;35.28;16.80;;;;;;;;;;6154088;23;20013;-79
2021/12/07 07:07:11;;;;;;;30.38;16.38;;;;;;;;;;6128510;23;20024;-80
2021/12/07 07:09:37;;;;;;;32.53;16.85;;;;;;;;;;6152881;23;20467;-80
2021/12/07 07:12:04;;;;;;;35.08;16.85;;;;;;;;;;6154060;23;20024;-79
2021/12/07 07:14:30;;;;;;;38.67;19.27;;;;;;;;;;6153096;23;20032;-80
2021/12/07 07:16:56;;;;;;;42.55;18.30;;;;;;;;;;6153934;23;20087;-79
2021/12/07 07:19:24;;;;;;;42.08;19.10;;;;;;;;;;6154491;23;20017;-80
2021/12/07 07:21:50;;;;;;;35.88;16.98;;;;;;;;;;6128237;23;20044;-79
2021/12/07 07:24:16;;;;;;;31.50;16.67;;;;;;;;;;6129156;23;20013;-79
2021/12/07 07:26:42;;;;;;;34.92;17.65;;;;;;;;;;6128945;23;20016;-80
2021/12/07 07:29:08;;;;;;;40.60;19.08;;;;;;;;;;6153288;23;20087;-79
2021/12/07 07:31:36;;;;;;;40.75;18.40;;;;;;;;;;6153335;23;20013;-79
2021/12/07 07:34:03;;;;;;;29.83;15.88;;;;;;;;;;6128440;23;20013;-81
2021/12/07 07:36:28;;;;;;;34.50;17.17;;;;;;;;;;6153806;23;20013;-81
2021/12/07 07:38:55;;;;;;;40.78;18.02;;;;;;;;;;6129118;23;20048;-81
2021/12/07 07:41:21;;;;;;;33.88;15.95;;;;;;;;;;6153541;23;20092;-81
2021/12/07 07:43:47;;;;;;;36.03;16.77;;;;;;;;;;6129173;23;20021;-80
2021/12/07 07:46:13;;;;;;;37.05;17.67;;;;;;;;;;6153511;23;20436;-80
2021/12/07 07:48:39;;;;;;;38.20;18.70;;;;;;;;;;6128965;23;20096;-80
2021/12/07 07:51:05;;;;;;;41.72;18.60;;;;;;;;;;6152511;23;20067;-80
2021/12/07 07:53:31;;;;;;;36.72;18.40;;;;;;;;;;6153492;23;20008;-80
2021/12/07 07:55:57;;;;;;;45.45;19.05;;;;;;;;;;6153195;23;20024;-81
2021/12/07 07:58:23;;;;;;;41.20;19.75;;;;;;;;;;6153353;23;20397;-81
2021/12/07 08:00:50;;;;;;;51.70;20.42;;;;;;;;;;6153156;23;20100;-80
2021/12/07 08:03:16;;;;;;;42.88;17.00;;;;;;;;;;6152892;23;20013;-81
2021/12/07 08:05:42;;;;;;;46.38;19.90;;;;;;;;;;6152679;23;20546;-80
2021/12/07 08:08:08;;;;;;;48.65;19.27;;;;;;;;;;6128321;23;20009;-80
2021/12/07 08:10:34;;;;;;;46.85;18.92;;;;;;;;;;6153515;23;20009;-80
2021/12/07 08:13:03;;;;;;;37.17;17.42;;;;;;;;;;6128561;23;20351;-81
2021/12/07 08:15:30;;;;;;;52.38;19.10;;;;;;;;;;6152620;23;20060;-81
2021/12/07 08:17:56;;;;;;;47.42;19.90;;;;;;;;;;6128209;23;20448;-81
2021/12/07 08:20:22;;;;;;;37.58;18.10;;;;;;;;;;6152740;23;20451;-81
2021/12/07 08:22:48;;;;;;;45.67;17.20;;;;;;;;;;6152911;23;20020;-81
2021/12/07 08:25:15;;;;;;;47.15;20.70;;;;;;;;;;6153141;23;20378;-81
2021/12/07 08:27:41;;;;;;;44.88;19.65;;;;;;;;;;6128397;23;20013;-81
2021/12/07 08:30:09;;;;;;;45.33;19.17;;;;;;;;;;6152452;23;20092;-80
2021/12/07 08:32:35;;;;;;;47.70;20.60;;;;;;;;;;6152877;23;20015;-80
2021/12/07 08:35:01;;;;;;;39.28;20.15;;;;;;;;;;6128478;23;20387;-81
2021/12/07 08:37:27;;;;;;;49.35;21.20;;;;;;;;;;6152737;23;20020;-80
2021/12/07 08:39:53;;;;;;;51.78;20.75;;;;;;;;;;6128343;23;20541;-80
2021/12/07 08:42:19;;;;;;;41.38;19.02;;;;;;;;;;6152462;23;20017;-79
2021/12/07 08:44:46;;;;;;;38.72;18.75;;;;;;;;;;6152761;23;20096;-80
2021/12/07 08:47:12;;;;;;;40.90;19.42;;;;;;;;;;6128150;23;20017;-79
2021/12/07 08:49:38;;;;;;;42.83;17.83;;;;;;;;;;6128599;23;20008;-79
2021/12/07 08:52:04;;;;;;;38.72;16.98;;;;;;;;;;6127571;23;20047;-79
2021/12/07 08:59:45;;;;;;;35.60;16.95;;;;;;;;;;6153409;23;20424;-82
2021/12/07 09:02:12;;;;;;;43.72;19.38;;;;;;;;;;6153346;23;20013;-81
2021/12/07 09:04:38;;;;;;;50.42;19.85;;;;;;;;;;6128013;23;20068;-81
2021/12/07 09:07:05;;;;;;;52.53;20.17;;;;;;;;;;6152735;23;20051;-80
2021/12/07 09:09:31;;;;;;;42.85;20.25;;;;;;;;;;6128592;23;20138;-80
2021/12/07 09:11:57;;;;;;;48.10;19.15;;;;;;;;;;6128358;23;20017;-80
2021/12/07 09:14:24;;;;;;;52.40;20.48;;;;;;;;;;6152602;23;20322;-79
2021/12/07 09:16:50;;;;;;;47.47;21.95;;;;;;;;;;6128347;23;20099;-80
2021/12/07 09:19:16;;;;;;;47.75;21.60;;;;;;;;;;6153243;23;20017;-79
2021/12/07 09:21:42;;;;;;;68.22;25.50;;;;;;;;;;6152697;23;20390;-79
2021/12/07 09:24:09;;;;;;;51.25;22.33;;;;;;;;;;6152645;23;20021;-79
2021/12/07 09:26:35;;;;;;;52.25;21.67;;;;;;;;;;6152262;23;20024;-79
2021/12/07 09:29:01;;;;;;;47.83;21.42;;;;;;;;;;6152140;23;20520;-79
2021/12/07 09:31:27;;;;;;;56.85;23.40;;;;;;;;;;6128401;23;20055;-79
2021/12/07 09:33:54;;;;;;;52.78;22.10;;;;;;;;;;6128015;23;20013;-79
2021/12/07 09:36:21;;;;;;;54.63;21.63;;;;;;;;;;6152084;23;20017;-79
2021/12/07 09:38:47;;;;;;;60.47;22.52;;;;;;;;;;6128433;23;20052;-79
2021/12/07 09:41:15;;;;;;;65.68;24.73;;;;;;;;;;6154059;23;20021;-79
2021/12/07 09:43:41;;;;;;;57.13;21.08;;;;;;;;;;6152935;23;20019;-79
2021/12/07 09:46:08;;;;;;;61.15;23.58;;;;;;;;;;6127532;23;20071;-79
2021/12/07 09:48:34;;;;;;;47.53;20.63;;;;;;;;;;6126952;23;20009;-80
2021/12/07 09:51:01;;;;;;;50.78;21.08;;;;;;;;;;6151969;23;20009;-81
2021/12/07 09:53:29;;;;;;;58.03;21.90;;;;;;;;;;6152241;23;20088;-80
2021/12/07 09:55:56;;;;;;;51.35;20.40;;;;;;;;;;6127381;23;20017;-80
2021/12/07 09:58:23;;;;;;;47.22;19.88;;;;;;;;;;6127949;23;20017;-80
2021/12/07 10:00:49;;;;;;;61.38;22.02;;;;;;;;;;6153788;23;20091;-81
2021/12/07 10:03:16;;;;;;;46.88;20.08;;;;;;;;;;6154601;23;20013;-81
2021/12/07 10:05:43;;;;;;;47.88;20.17;;;;;;;;;;6129840;23;20024;-81
2021/12/07 10:08:09;;;;;;;45.60;19.63;;;;;;;;;;6154354;23;20032;-81
2021/12/07 10:10:39;;;;;;;54.05;22.00;;;;;;;;;;6129472;23;20021;-81
2021/12/07 10:13:07;;;;;;;50.78;20.00;;;;;;;;;;6130317;23;20005;-81
2021/12/07 10:15:33;;;;;;;53.58;19.83;;;;;;;;;;6130233;23;20017;-81
2021/12/07 10:17:59;;;;;;;58.35;20.25;;;;;;;;;;6130268;23;20009;-81
2021/12/07 10:20:32;;;;;;;51.17;20.48;;;;;;;;;;6130124;23;20020;-81
2021/12/07 10:23:04;;;;;;;50.70;19.95;;;;;;;;;;6154980;23;20728;-81
2021/12/07 10:25:30;;;;;;;43.55;18.90;;;;;;;;;;6130360;23;20091;-81
2021/12/07 10:27:57;;;;;;;68.57;22.15;;;;;;;;;;6129706;23;20087;-81
2021/12/07 10:30:23;;;;;;;43.17;17.58;;;;;;;;;;6156102;23;20013;-80
2021/12/07 10:32:57;;;;;;;43.40;17.35;;;;;;;;;;6156845;23;20009;-79
2021/12/07 10:35:41;;;;;;;39.33;17.30;;;;;;;;;;6132589;23;20013;-80
2021/12/07 10:38:12;;;;;;;39.92;16.00;;;;;;;;;;6132102;23;20013;-80
2021/12/07 10:40:54;;;;;;;36.80;16.10;;;;;;;;;;6132467;23;20009;-80
2021/12/07 10:43:38;;;;;;;40.72;15.73;;;;;;;;;;6132478;23;20592;-79
2021/12/07 10:46:24;;;;;;;36.70;15.48;;;;;;;;;;6156619;23;20013;-79
2021/12/07 10:48:50;;;;;;;41.00;17.42;;;;;;;;;;6132592;23;20020;-80
2021/12/07 10:51:16;;;;;;;33.90;14.20;;;;;;;;;;6132153;23;20628;-80
2021/12/07 10:53:52;;;;;;;32.88;14.88;;;;;;;;;;6157068;23;20013;-80
2021/12/07 10:56:31;;;;;;;36.38;15.35;;;;;;;;;;6132586;23;20055;-80
2021/12/07 10:59:05;;;;;;;30.63;14.40;;;;;;;;;;6157387;23;20025;-79
2021/12/07 11:01:31;;;;;;;;;;;;;;;;;;6133216;23;20017;-81
2021/12/07 11:04:16;;;;;;;36.92;14.40;;;;;;;;;;6156993;23;19983;-79
2021/12/07 11:07:00;;;;;;;41.95;15.55;;;;;;;;;;6156892;23;20222;-80
2021/12/07 11:09:26;;;;;;;28.38;13.88;;;;;;;;;;6132568;23;20044;-79
2021/12/07 11:12:06;;;;;;;36.17;14.50;;;;;;;;;;6157040;23;20033;-79
2021/12/07 11:14:53;;;;;;;37.83;15.75;;;;;;;;;;6156424;23;20041;-80
2021/12/07 11:17:22;;;;;;;30.88;13.93;;;;;;;;;;6132347;23;20088;-80
2021/12/07 11:19:48;;;;;;;28.00;13.82;;;;;;;;;;6156826;23;20051;-79
2021/12/07 11:22:16;;;;;;;24.95;13.20;;;;;;;;;;6129471;23;20328;-80
2021/12/07 11:24:44;;;;;;;24.20;12.27;;;;;;;;;;6153675;23;20017;-79
2021/12/07 11:30:00;;;;;;;31.38;13.40;;;;;;;;;;6153606;23;20039;-79
2021/12/07 11:32:26;;;;;;;27.98;13.25;;;;;;;;;;6131749;23;20709;-79
2021/12/07 11:34:52;;;;;;;27.33;12.07;;;;;;;;;;6156892;23;20013;-80
2021/12/07 11:37:22;;;;;;;31.05;12.55;;;;;;;;;;6156462;23;20072;-80
2021/12/07 11:39:53;;;;;;;28.70;13.30;;;;;;;;;;6154060;23;20352;-80
2021/12/07 11:42:22;;;;;;;28.30;11.98;;;;;;;;;;6129621;23;20125;-80
2021/12/07 11:44:51;;;;;;;25.10;12.02;;;;;;;;;;6152907;23;20019;-80
2021/12/07 11:47:24;;;;;;;22.58;11.13;;;;;;;;;;6129548;23;20013;-80
2021/12/07 11:49:50;;;;;;;17.83;9.23;;;;;;;;;;6129449;23;20019;-79
2021/12/07 11:52:16;;;;;;;16.35;8.98;;;;;;;;;;6128080;23;20009;-79
2021/12/07 11:54:43;;;;;;;18.40;9.80;;;;;;;;;;6153487;23;20013;-80
2021/12/07 11:57:12;;;;;;;22.77;10.13;;;;;;;;;;6128440;23;20336;-79
2021/12/07 11:59:42;;;;;;;18.55;8.88;;;;;;;;;;6130166;23;20395;-80
2021/12/07 12:02:08;;;;;;;19.10;8.57;;;;;;;;;;6129143;23;20027;-80
2021/12/07 12:04:34;;;;;;;19.15;9.07;;;;;;;;;;6129173;23;20021;-80
2021/12/07 12:07:00;;;;;;;17.70;7.45;;;;;;;;;;6129436;23;20466;-80
2021/12/07 12:09:28;;;;;;;17.92;8.57;;;;;;;;;;6129448;23;20358;-80
2021/12/07 12:11:57;;;;;;;17.55;7.85;;;;;;;;;;6153809;23;20242;-80
2021/12/07 12:14:46;;;;;;;22.58;9.10;;;;;;;;;;6153803;23;20096;-80
2021/12/07 12:17:12;;;;;;;21.60;9.20;;;;;;;;;;6153811;23;20059;-80
2021/12/07 12:19:38;;;;;;;18.05;8.95;;;;;;;;;;6129136;23;20454;-80
2021/12/07 12:22:11;;;;;;;19.85;9.23;;;;;;;;;;6129357;23;20473;-80
2021/12/07 12:24:51;;;;;;;19.77;9.40;;;;;;;;;;6129008;23;20024;-80
2021/12/07 12:27:17;;;;;;;18.63;8.30;;;;;;;;;;6153550;23;20025;-80
2021/12/07 12:29:45;;;;;;;16.33;8.70;;;;;;;;;;6153688;23;20023;-80
2021/12/07 12:32:11;;;;;;;19.90;8.82;;;;;;;;;;6129026;23;20009;-80
2021/12/07 12:34:38;;;;;;;15.48;8.27;;;;;;;;;;6153596;23;20021;-79
2021/12/07 12:37:16;;;;;;;19.40;8.85;;;;;;;;;;6153530;23;20016;-79
2021/12/07 12:39:48;;;;;;;22.40;9.63;;;;;;;;;;6153646;23;20028;-79
2021/12/07 12:42:23;;;;;;;19.63;8.65;;;;;;;;;;6129092;23;20332;-79
2021/12/07 12:44:49;;;;;;;19.23;8.90;;;;;;;;;;6128923;23;20390;-79
2021/12/07 12:47:19;;;;;;;16.38;8.93;;;;;;;;;;6153392;23;20078;-79
2021/12/07 12:49:46;;;;;;;17.52;7.95;;;;;;;;;;6179804;23;20083;-78
2021/12/07 12:52:12;;;;;;;18.15;7.78;;;;;;;;;;6179688;23;20125;-79
2021/12/07 12:54:46;;;;;;;18.10;7.75;;;;;;;;;;6128982;23;20044;-80
2021/12/07 12:57:16;;;;;;;16.40;6.75;;;;;;;;;;6179851;23;20042;-80
2021/12/07 12:59:43;;;;;;;15.57;6.55;;;;;;;;;;6153444;23;20525;-81
2021/12/07 13:02:10;;;;;;;15.45;7.55;;;;;;;;;;6153463;23;20346;-80
2021/12/07 13:04:36;;;;;;;14.07;7.28;;;;;;;;;;6179628;23;20040;-80
2021/12/07 13:09:42;;;;;;;13.32;6.72;;;;;;;;;;6179821;23;20017;-80
2021/12/07 13:12:10;;;;;;;14.75;7.50;;;;;;;;;;6128780;23;20446;-80
2021/12/07 13:14:36;;;;;;;13.27;8.00;;;;;;;;;;6128682;23;20133;-80
2021/12/07 13:17:09;;;;;;;12.90;6.50;;;;;;;;;;6153690;23;20493;-80
2021/12/07 13:19:54;;;;;;;13.73;7.65;;;;;;;;;;6128697;23;20017;-81
2021/12/07 13:22:20;;;;;;;14.93;7.47;;;;;;;;;;6179599;23;20013;-79
2021/12/07 13:24:48;;;;;;;16.80;7.20;;;;;;;;;;6128595;23;20484;-79
2021/12/07 13:27:15;;;;;;;17.63;7.90;;;;;;;;;;6153082;23;20341;-79
2021/12/07 13:29:45;;;;;;;14.38;7.07;;;;;;;;;;6179597;23;20013;-79
2021/12/07 13:32:11;;;;;;;18.15;7.72;;;;;;;;;;6153549;23;20049;-79
2021/12/07 13:34:38;;;;;;;12.90;7.00;;;;;;;;;;6153251;23;20447;-79
2021/12/07 13:37:08;;;;;;;16.15;7.20;;;;;;;;;;6153128;23;20013;-80
2021/12/07 13:39:37;;;;;;;18.73;8.57;;;;;;;;;;6152859;23;20028;-80
2021/12/07 13:42:06;;;;;;;20.27;7.97;;;;;;;;;;6153366;23;20455;-80
2021/12/07 13:44:43;;;;;;;18.15;7.55;;;;;;;;;;6179529;23;20438;-79
2021/12/07 13:47:13;;;;;;;16.60;7.35;;;;;;;;;;6153067;23;20351;-79
2021/12/07 13:49:43;;;;;;;16.67;8.43;;;;;;;;;;6153182;23;20017;-79
2021/12/07 13:52:14;;;;;;;15.75;8.77;;;;;;;;;;6128463;23;20064;-79
2021/12/07 13:54:44;;;;;;;21.60;10.10;;;;;;;;;;6153378;23;20016;-79
2021/12/07 13:57:14;;;;;;;21.95;9.23;;;;;;;;;;6152983;23;20052;-80
2021/12/07 13:59:40;;;;;;;19.20;9.23;;;;;;;;;;6150284;23;20017;-80
2021/12/07 14:02:06;;;;;;;18.45;9.68;;;;;;;;;;6152326;23;20039;-81
2021/12/07 14:04:32;;;;;;;17.95;8.90;;;;;;;;;;6177716;23;20510;-81
2021/12/07 14:06:59;;;;;;;17.23;9.02;;;;;;;;;;6154900;23;20145;-81
2021/12/07 14:09:25;;;;;;;18.58;9.88;;;;;;;;;;6130517;23;20013;-81
2021/12/07 14:11:52;;;;;;;17.10;9.40;;;;;;;;;;6154952;23;20013;-80
2021/12/07 14:14:20;;;;;;;16.38;9.50;;;;;;;;;;6154523;23;20447;-79
2021/12/07 14:16:46;;;;;;;16.60;9.35;;;;;;;;;;6154296;23;20529;-79
2021/12/07 14:19:12;;;;;;;19.95;9.90;;;;;;;;;;6130234;23;20052;-80
2021/12/07 14:21:39;;;;;;;17.70;9.60;;;;;;;;;;6181247;23;20020;-80
2021/12/07 14:24:08;;;;;;;19.48;10.35;;;;;;;;;;6130321;23;20546;-80
2021/12/07 14:26:36;;;;;;;16.40;9.02;;;;;;;;;;6154728;23;20088;-80
2021/12/07 14:29:10;;;;;;;17.90;9.13;;;;;;;;;;6154910;23;20024;-80
2021/12/07 14:31:38;;;;;;;18.65;9.88;;;;;;;;;;6154655;23;20438;-80
2021/12/07 14:34:06;;;;;;;19.58;9.85;;;;;;;;;;6154789;23;20075;-80
2021/12/07 14:36:34;;;;;;;19.65;10.32;;;;;;;;;;6154472;23;20020;-80
2021/12/07 14:39:21;;;;;;;20.17;10.13;;;;;;;;;;6130096;23;20017;-81
2021/12/07 14:41:50;;;;;;;24.48;10.65;;;;;;;;;;6154791;23;20480;-80
2021/12/07 14:44:17;;;;;;;24.58;10.90;;;;;;;;;;6154826;23;20079;-81
2021/12/07 14:46:44;;;;;;;19.02;10.93;;;;;;;;;;6130347;23;20024;-80
2021/12/07 14:49:10;;;;;;;19.17;11.45;;;;;;;;;;6130696;23;20023;-81
2021/12/07 14:51:36;;;;;;;20.67;10.95;;;;;;;;;;6157824;23;20013;-80
2021/12/07 14:54:04;;;;;;;19.92;10.90;;;;;;;;;;6158075;23;20012;-80
2021/12/07 14:56:31;;;;;;;19.60;11.15;;;;;;;;;;6155527;23;20021;-80
2021/12/07 14:58:58;;;;;;;18.13;10.30;;;;;;;;;;6181633;23;20020;-80
2021/12/07 15:01:26;;;;;;;22.83;11.23;;;;;;;;;;6129974;23;20092;-80
2021/12/07 15:03:54;;;;;;;21.95;12.00;;;;;;;;;;6129512;23;20450;-81
2021/12/07 15:06:20;;;;;;;27.40;13.68;;;;;;;;;;6154530;23;20023;-81
2021/12/07 15:08:47;;;;;;;22.83;13.35;;;;;;;;;;6154636;23;20020;-81
2021/12/07 15:11:13;;;;;;;21.15;12.52;;;;;;;;;;6154453;23;20281;-81
2021/12/07 15:13:39;;;;;;;26.73;15.25;;;;;;;;;;6130269;23;20342;-81
2021/12/07 15:16:07;;;;;;;25.13;14.30;;;;;;;;;;6129617;23;20336;-80
2021/12/07 15:18:39;;;;;;;21.80;14.27;;;;;;;;;;6154282;23;20020;-80
2021/12/07 15:21:06;;;;;;;27.20;15.43;;;;;;;;;;6129820;23;20016;-80
2021/12/07 15:23:32;;;;;;;29.13;16.27;;;;;;;;;;6129654;23;20024;-80
2021/12/07 15:25:58;;;;;;;27.00;15.98;;;;;;;;;;6154609;23;20017;-80
2021/12/07 15:28:24;;;;;;;29.02;15.98;;;;;;;;;;6129392;23;20044;-79
2021/12/07 15:30:51;;;;;;;30.15;17.33;;;;;;;;;;6129768;23;20362;-80
2021/12/07 15:33:18;;;;;;;28.15;16.25;;;;;;;;;;6180973;23;20125;-80
2021/12/07 15:35:44;;;;;;;30.83;18.40;;;;;;;;;;6154137;23;20017;-80
2021/12/07 15:38:17;;;;;;;27.85;16.73;;;;;;;;;;6154022;23;20059;-80
2021/12/07 15:40:45;;;;;;;34.42;18.27;;;;;;;;;;6154204;23;20091;-80
2021/12/07 15:43:11;;;;;;;27.70;16.60;;;;;;;;;;6153616;23;20329;-80
2021/12/07 15:45:38;;;;;;;27.10;17.02;;;;;;;;;;6153804;23;20013;-81
2021/12/07 15:48:05;;;;;;;30.35;19.42;;;;;;;;;;6153605;23;20016;-80
2021/12/07 15:50:33;;;;;;;32.33;18.63;;;;;;;;;;6153557;23;20391;-80
2021/12/07 15:53:04;;;;;;;30.13;17.92;;;;;;;;;;6128360;23;20013;-81
2021/12/07 15:55:35;;;;;;;32.30;18.30;;;;;;;;;;6129532;23;20442;-80
2021/12/07 15:58:06;;;;;;;29.65;18.00;;;;;;;;;;6154033;23;20020;-81
2021/12/07 16:00:48;;;;;;;35.83;19.58;;;;;;;;;;6180133;23;20013;-81
2021/12/07 16:03:16;;;;;;;36.85;18.80;;;;;;;;;;6153614;23;20017;-81
2021/12/07 16:05:43;;;;;;;34.60;19.27;;;;;;;;;;6153254;23;20339;-80
2021/12/07 16:08:13;;;;;;;30.80;17.70;;;;;;;;;;6153652;23;20067;-81